createdAt,value
2019-03-13T00:02:45.474Z,64.25
2019-03-13T00:08:51.155Z,64.36
2019-03-13T00:14:57.035Z,64.22
2019-03-13T00:21:02.703Z,63.92
2019-03-13T00:27:08.490Z,63.78
2019-03-13T00:33:14.225Z,63.41
2019-03-13T00:39:19.956Z,62.78
2019-03-13T00:45:25.710Z,62.28
2019-03-13T00:51:31.501Z,62.14
2019-03-13T00:57:37.210Z,62.10
2019-03-13T01:03:52.855Z,62.33
2019-03-13T01:09:58.556Z,62.54
2019-03-13T01:16:04.353Z,62.53
2019-03-13T01:22:10.064Z,62.63
2019-03-13T01:28:15.791Z,62.88
2019-03-13T01:34:52.185Z,62.87
2019-03-13T01:40:57.874Z,62.78
2019-03-13T01:47:03.575Z,62.82
2019-03-13T01:53:09.314Z,62.88
2019-03-13T01:59:15.013Z,63.02
2019-03-13T02:05:20.790Z,63.00
2019-03-13T02:11:26.542Z,63.12
2019-03-13T02:17:32.342Z,63.01
2019-03-13T02:23:38.134Z,63.20
2019-03-13T02:29:43.871Z,63.33
2019-03-13T02:35:49.632Z,63.48
2019-03-13T02:41:55.337Z,63.52
2019-03-13T02:48:01.034Z,63.48
2019-03-13T02:54:06.704Z,63.25
2019-03-13T03:00:13.303Z,63.29
2019-03-13T03:06:19.086Z,63.56
2019-03-13T03:12:24.779Z,63.57
2019-03-13T03:18:30.514Z,63.50
2019-03-13T03:24:36.172Z,63.23
2019-03-13T03:30:41.998Z,63.34
2019-03-13T03:36:47.797Z,63.31
2019-03-13T03:42:53.545Z,63.34
2019-03-13T03:48:59.269Z,63.42
2019-03-13T03:55:05.548Z,63.51
2019-03-13T04:01:11.278Z,63.32
2019-03-13T04:07:17.025Z,63.18
2019-03-13T04:13:22.807Z,62.24
2019-03-13T04:19:28.616Z,61.78
2019-03-13T04:25:38.562Z,61.54
2019-03-13T04:31:44.546Z,61.08
2019-03-13T04:37:50.250Z,60.86
2019-03-13T04:43:55.955Z,60.54
2019-03-13T04:50:01.728Z,60.29
2019-03-13T04:56:07.497Z,60.08
2019-03-13T05:02:13.223Z,60.16
2019-03-13T05:09:14.455Z,60.06
2019-03-13T05:15:20.180Z,59.97
2019-03-13T05:21:26.044Z,59.94
2019-03-13T05:27:31.792Z,59.61
2019-03-13T05:33:37.479Z,59.43
2019-03-13T05:39:43.238Z,59.17
2019-03-13T05:45:48.919Z,58.76
2019-03-13T05:51:54.627Z,58.91
2019-03-13T05:58:00.417Z,58.70
2019-03-13T06:04:06.096Z,58.89
2019-03-13T06:10:11.949Z,58.87
2019-03-13T06:16:17.669Z,58.70
2019-03-13T06:22:23.419Z,58.77
2019-03-13T06:28:29.181Z,58.96
2019-03-13T06:34:34.966Z,59.18
2019-03-13T06:40:40.694Z,59.16
2019-03-13T06:46:46.450Z,59.09
2019-03-13T06:52:52.362Z,59.91
2019-03-13T06:59:13.778Z,59.83
2019-03-13T07:05:34.465Z,60.03
2019-03-13T07:11:56.680Z,59.84
2019-03-13T07:18:39.515Z,60.51
2019-03-13T07:25:07.280Z,60.88
2019-03-13T07:31:31.841Z,61.16
2019-03-13T07:37:56.568Z,60.72
2019-03-13T07:44:29.326Z,61.36
2019-03-13T07:50:57.218Z,62.67
2019-03-13T07:57:27.820Z,62.83
2019-03-13T08:03:53.867Z,62.49
2019-03-13T08:10:24.650Z,62.06
2019-03-13T08:16:44.324Z,61.32
2019-03-13T08:23:04.615Z,61.16
2019-03-13T08:29:16.854Z,61.10
2019-03-13T08:35:44.527Z,60.42
2019-03-13T08:42:12.380Z,60.11
2019-03-13T08:48:28.297Z,60.56
2019-03-13T08:54:40.374Z,61.45
2019-03-13T09:01:13.899Z,61.60
2019-03-13T09:07:40.541Z,61.49
2019-03-13T09:14:05.120Z,60.93
2019-03-13T09:20:21.135Z,61.03
2019-03-13T09:26:35.672Z,61.90
2019-03-13T09:33:09.481Z,63.96
2019-03-13T09:39:23.323Z,64.92
2019-03-13T09:45:45.494Z,65.55
2019-03-13T09:52:10.047Z,66.02
2019-03-13T09:58:29.369Z,66.01
2019-03-13T10:04:56.962Z,66.20
2019-03-13T10:11:24.694Z,65.87
2019-03-13T10:17:50.658Z,65.41
2019-03-13T10:24:03.334Z,64.91
2019-03-13T10:30:29.676Z,64.76
2019-03-13T10:37:12.321Z,64.62
2019-03-13T10:43:36.892Z,64.01
2019-03-13T10:50:04.189Z,63.79
2019-03-13T10:56:43.940Z,63.46
2019-03-13T11:03:08.500Z,63.25
2019-03-13T11:09:22.942Z,63.41
2019-03-13T11:15:45.230Z,63.06
2019-03-13T11:22:09.834Z,62.25
2019-03-13T11:28:40.000Z,61.99
2019-03-13T11:35:02.489Z,62.09
2019-03-13T11:41:21.822Z,61.77
2019-03-13T11:47:55.212Z,61.77
2019-03-13T11:54:16.817Z,61.74
2019-03-13T12:00:53.044Z,61.22
2019-03-13T12:07:17.075Z,61.13
2019-03-13T12:13:36.306Z,61.50
2019-03-13T12:20:12.838Z,61.76
2019-03-13T12:26:49.358Z,62.47
2019-03-13T12:33:10.297Z,63.86
2019-03-13T12:39:24.938Z,64.99
2019-03-13T12:45:44.547Z,65.04
2019-03-13T12:51:58.899Z,65.95
2019-03-13T12:58:23.421Z,66.13
2019-03-13T13:04:59.903Z,66.69
2019-03-13T13:11:33.397Z,67.54
2019-03-13T13:18:04.372Z,68.35
2019-03-13T13:24:10.145Z,68.48
2019-03-13T13:30:16.763Z,68.45
2019-03-13T13:36:22.734Z,68.46
2019-03-13T13:42:28.690Z,67.71
2019-03-13T13:48:34.434Z,67.83
2019-03-13T13:54:40.365Z,67.95
2019-03-13T14:00:46.110Z,68.39
2019-03-13T14:06:51.943Z,68.70
2019-03-13T14:12:57.817Z,68.95
2019-03-13T14:19:03.800Z,69.46
2019-03-13T14:25:09.678Z,69.60
2019-03-13T14:31:15.448Z,70.08
2019-03-13T14:37:21.438Z,70.22
2019-03-13T14:43:27.187Z,70.11
2019-03-13T14:49:33.016Z,69.19
2019-03-13T14:55:38.890Z,69.06
2019-03-13T15:01:44.821Z,68.64
2019-03-13T15:07:50.603Z,69.91
2019-03-13T15:13:56.386Z,70.80
2019-03-13T15:20:02.157Z,70.89
2019-03-13T15:26:07.985Z,70.72
2019-03-13T15:32:13.784Z,71.13
2019-03-13T15:38:19.717Z,70.88
2019-03-13T15:44:25.517Z,71.01
2019-03-13T15:50:31.253Z,70.61
2019-03-13T15:56:37.713Z,70.60
2019-03-13T16:02:43.674Z,70.71
2019-03-13T16:08:49.408Z,70.42
2019-03-13T16:14:55.258Z,69.81
2019-03-13T16:21:01.051Z,68.63
2019-03-13T16:27:06.935Z,68.50
2019-03-13T16:33:12.849Z,68.49
2019-03-13T16:39:18.651Z,69.25
2019-03-13T16:45:24.759Z,69.80
2019-03-13T16:51:30.540Z,70.16
2019-03-13T16:57:36.356Z,70.41
2019-03-13T17:03:42.123Z,70.65
2019-03-13T17:09:47.847Z,70.76
2019-03-13T17:15:53.750Z,70.69
2019-03-13T17:21:59.525Z,70.84
2019-03-13T17:28:05.277Z,70.88
2019-03-13T17:34:11.314Z,71.19
2019-03-13T17:40:19.621Z,71.41
2019-03-13T17:46:25.437Z,71.57
2019-03-13T17:52:31.288Z,71.88
2019-03-13T17:58:37.173Z,71.89
2019-03-13T18:04:42.966Z,71.95
2019-03-13T18:10:48.684Z,71.72
2019-03-13T18:16:54.415Z,71.42
2019-03-13T18:23:00.286Z,71.28
2019-03-13T18:29:06.165Z,71.13
2019-03-13T18:35:12.031Z,70.92
2019-03-13T18:41:17.794Z,70.55
2019-03-13T18:47:23.547Z,70.13
2019-03-13T18:53:29.284Z,70.27
2019-03-13T18:59:38.008Z,70.21
2019-03-13T19:05:42.594Z,70.07
2019-03-13T19:11:48.349Z,69.93
2019-03-13T19:17:54.206Z,70.28
2019-03-13T19:24:02.616Z,70.46
2019-03-13T19:30:16.500Z,70.39
2019-03-13T19:36:22.457Z,70.54
2019-03-13T19:42:28.346Z,70.39
2019-03-13T19:48:34.264Z,70.12
2019-03-13T19:54:40.207Z,69.77
2019-03-13T20:00:46.070Z,69.09
2019-03-13T20:06:51.927Z,68.69
2019-03-13T20:13:01.630Z,68.09
2019-03-13T20:19:17.367Z,67.89
2019-03-13T20:25:23.202Z,67.86
2019-03-13T20:31:29.865Z,67.81
2019-03-13T20:37:35.854Z,67.88
2019-03-13T20:43:41.702Z,68.00
2019-03-13T20:49:47.443Z,68.23
2019-03-13T20:55:53.208Z,68.60
2019-03-13T21:02:00.378Z,68.91
2019-03-13T21:08:06.447Z,69.32
2019-03-13T21:14:12.264Z,69.44
2019-03-13T21:20:18.910Z,69.77
2019-03-13T21:26:24.779Z,69.93
2019-03-13T21:32:30.918Z,70.09
2019-03-13T21:38:36.734Z,70.02
2019-03-13T21:44:42.504Z,69.87
2019-03-13T21:50:50.397Z,69.63
2019-03-13T21:56:55.766Z,69.38
2019-03-13T22:03:01.499Z,69.09
2019-03-13T22:09:07.945Z,68.99
2019-03-13T22:15:14.896Z,68.76
2019-03-13T22:21:20.779Z,68.67
2019-03-13T22:27:26.633Z,68.61
2019-03-13T22:33:32.337Z,68.47
2019-03-13T22:39:38.175Z,68.34
2019-03-13T22:45:44.005Z,68.16
2019-03-13T22:51:49.748Z,67.89
2019-03-13T22:57:55.460Z,67.69
2019-03-13T23:04:01.207Z,67.49
2019-03-13T23:10:25.951Z,67.31
2019-03-13T23:16:34.064Z,67.21
2019-03-13T23:22:39.073Z,67.11
2019-03-13T23:28:45.254Z,67.25
2019-03-13T23:34:50.972Z,67.33
2019-03-13T23:40:56.692Z,67.67
2019-03-13T23:47:02.396Z,68.07
2019-03-13T23:53:08.171Z,68.27
2019-03-13T23:59:13.901Z,68.52
